sensor_id;sensor_type;location;lat;lon;timestamp;P1;durP1;ratioP1;P2;durP2;ratioP2
5022;SDS011;2530;47.990;7.866;2023-08-30T00:02:09;5.83;;;5.33;;
5022;SDS011;2530;47.990;7.866;2023-08-30T00:04:34;6.03;;;5.43;;
5022;SDS011;2530;47.990;7.866;2023-08-30T00:07:00;5.57;;;5.10;;
5022;SDS011;2530;47.990;7.866;2023-08-30T00:09:25;5.80;;;5.40;;
5022;SDS011;2530;47.990;7.866;2023-08-30T00:11:51;6.87;;;5.87;;
5022;SDS011;2530;47.990;7.866;2023-08-30T00:14:16;5.40;;;5.00;;
5022;SDS011;2530;47.990;7.866;2023-08-30T00:16:42;5.80;;;5.23;;
5022;SDS011;2530;47.990;7.866;2023-08-30T00:19:08;6.10;;;5.70;;
5022;SDS011;2530;47.990;7.866;2023-08-30T00:21:33;5.60;;;4.70;;
5022;SDS011;2530;47.990;7.866;2023-08-30T00:23:59;5.43;;;5.03;;
5022;SDS011;2530;47.990;7.866;2023-08-30T00:26:25;4.80;;;4.40;;
5022;SDS011;2530;47.990;7.866;2023-08-30T00:28:50;6.45;;;5.22;;
5022;SDS011;2530;47.990;7.866;2023-08-30T00:31:16;5.00;;;4.60;;
5022;SDS011;2530;47.990;7.866;2023-08-30T00:33:41;5.22;;;4.82;;
5022;SDS011;2530;47.990;7.866;2023-08-30T00:36:07;6.25;;;5.15;;
5022;SDS011;2530;47.990;7.866;2023-08-30T00:38:33;6.30;;;5.70;;
5022;SDS011;2530;47.990;7.866;2023-08-30T00:40:58;5.07;;;4.60;;
5022;SDS011;2530;47.990;7.866;2023-08-30T00:43:24;6.20;;;5.63;;
5022;SDS011;2530;47.990;7.866;2023-08-30T00:45:50;5.40;;;5.00;;
5022;SDS011;2530;47.990;7.866;2023-08-30T00:48:16;6.10;;;5.50;;
5022;SDS011;2530;47.990;7.866;2023-08-30T00:50:44;5.75;;;5.25;;
5022;SDS011;2530;47.990;7.866;2023-08-30T00:53:10;6.40;;;5.80;;
5022;SDS011;2530;47.990;7.866;2023-08-30T00:55:36;5.78;;;5.25;;
5022;SDS011;2530;47.990;7.866;2023-08-30T00:58:03;6.28;;;5.78;;
5022;SDS011;2530;47.990;7.866;2023-08-30T01:00:29;5.90;;;5.50;;
5022;SDS011;2530;47.990;7.866;2023-08-30T01:02:55;5.82;;;5.32;;
5022;SDS011;2530;47.990;7.866;2023-08-30T01:05:22;5.78;;;5.38;;
5022;SDS011;2530;47.990;7.866;2023-08-30T01:07:48;4.93;;;4.63;;
5022;SDS011;2530;47.990;7.866;2023-08-30T01:10:17;5.90;;;5.40;;
5022;SDS011;2530;47.990;7.866;2023-08-30T01:12:47;5.80;;;5.30;;
5022;SDS011;2530;47.990;7.866;2023-08-30T01:15:18;6.30;;;5.70;;
5022;SDS011;2530;47.990;7.866;2023-08-30T01:17:44;5.82;;;5.30;;
5022;SDS011;2530;47.990;7.866;2023-08-30T01:20:16;5.70;;;5.20;;
5022;SDS011;2530;47.990;7.866;2023-08-30T01:28:24;5.40;;;4.90;;
5022;SDS011;2530;47.990;7.866;2023-08-30T01:30:53;5.65;;;5.15;;
5022;SDS011;2530;47.990;7.866;2023-08-30T01:33:20;6.07;;;5.47;;
5022;SDS011;2530;47.990;7.866;2023-08-30T01:35:46;5.90;;;5.50;;
5022;SDS011;2530;47.990;7.866;2023-08-30T01:38:12;6.20;;;5.60;;
5022;SDS011;2530;47.990;7.866;2023-08-30T01:40:40;6.40;;;5.90;;
5022;SDS011;2530;47.990;7.866;2023-08-30T01:43:07;5.95;;;5.45;;
5022;SDS011;2530;47.990;7.866;2023-08-30T01:45:36;5.10;;;4.70;;
5022;SDS011;2530;47.990;7.866;2023-08-30T01:48:05;6.13;;;5.53;;
5022;SDS011;2530;47.990;7.866;2023-08-30T01:50:34;5.82;;;5.22;;
5022;SDS011;2530;47.990;7.866;2023-08-30T01:53:00;5.70;;;5.22;;
5022;SDS011;2530;47.990;7.866;2023-08-30T01:55:27;5.65;;;5.25;;
5022;SDS011;2530;47.990;7.866;2023-08-30T01:57:54;5.50;;;5.00;;
5022;SDS011;2530;47.990;7.866;2023-08-30T02:00:20;5.93;;;5.20;;
5022;SDS011;2530;47.990;7.866;2023-08-30T02:02:46;6.20;;;5.70;;
5022;SDS011;2530;47.990;7.866;2023-08-30T02:05:13;5.53;;;5.03;;
5022;SDS011;2530;47.990;7.866;2023-08-30T02:08:24;6.40;;;5.37;;
5022;SDS011;2530;47.990;7.866;2023-08-30T02:10:33;7.43;;;5.60;;
5022;SDS011;2530;47.990;7.866;2023-08-30T02:13:00;6.40;;;5.90;;
5022;SDS011;2530;47.990;7.866;2023-08-30T02:15:28;5.60;;;5.10;;
5022;SDS011;2530;47.990;7.866;2023-08-30T02:17:56;5.20;;;4.70;;
5022;SDS011;2530;47.990;7.866;2023-08-30T02:20:23;5.60;;;5.10;;
5022;SDS011;2530;47.990;7.866;2023-08-30T02:22:48;5.95;;;5.55;;
5022;SDS011;2530;47.990;7.866;2023-08-30T02:25:14;7.80;;;5.18;;
5022;SDS011;2530;47.990;7.866;2023-08-30T02:27:40;5.93;;;5.30;;
5022;SDS011;2530;47.990;7.866;2023-08-30T02:30:07;6.13;;;5.63;;
5022;SDS011;2530;47.990;7.866;2023-08-30T02:32:32;6.00;;;5.50;;
5022;SDS011;2530;47.990;7.866;2023-08-30T02:34:58;6.80;;;6.10;;
5022;SDS011;2530;47.990;7.866;2023-08-30T02:37:24;5.80;;;5.40;;
5022;SDS011;2530;47.990;7.866;2023-08-30T02:39:50;7.30;;;5.63;;
5022;SDS011;2530;47.990;7.866;2023-08-30T02:42:15;5.70;;;5.20;;
5022;SDS011;2530;47.990;7.866;2023-08-30T02:44:41;5.67;;;5.27;;
5022;SDS011;2530;47.990;7.866;2023-08-30T02:47:07;6.32;;;5.82;;
5022;SDS011;2530;47.990;7.866;2023-08-30T02:49:32;5.60;;;5.15;;
5022;SDS011;2530;47.990;7.866;2023-08-30T02:51:58;5.63;;;5.07;;
5022;SDS011;2530;47.990;7.866;2023-08-30T02:54:23;5.97;;;5.40;;
5022;SDS011;2530;47.990;7.866;2023-08-30T02:56:49;5.60;;;5.20;;
5022;SDS011;2530;47.990;7.866;2023-08-30T02:59:15;5.90;;;5.50;;
5022;SDS011;2530;47.990;7.866;2023-08-30T03:01:40;7.22;;;5.38;;
5022;SDS011;2530;47.990;7.866;2023-08-30T03:04:06;5.87;;;5.37;;
5022;SDS011;2530;47.990;7.866;2023-08-30T03:06:32;5.47;;;5.07;;
5022;SDS011;2530;47.990;7.866;2023-08-30T03:08:58;5.53;;;5.03;;
5022;SDS011;2530;47.990;7.866;2023-08-30T03:11:24;5.60;;;5.10;;
5022;SDS011;2530;47.990;7.866;2023-08-30T03:13:50;6.30;;;5.70;;
5022;SDS011;2530;47.990;7.866;2023-08-30T03:16:16;5.80;;;5.35;;
5022;SDS011;2530;47.990;7.866;2023-08-30T03:18:42;5.70;;;5.20;;
5022;SDS011;2530;47.990;7.866;2023-08-30T03:21:08;6.45;;;5.00;;
5022;SDS011;2530;47.990;7.866;2023-08-30T03:23:35;5.90;;;5.40;;
5022;SDS011;2530;47.990;7.866;2023-08-30T03:26:10;7.47;;;5.10;;
5022;SDS011;2530;47.990;7.866;2023-08-30T03:28:38;5.20;;;4.70;;
5022;SDS011;2530;47.990;7.866;2023-08-30T03:31:20;5.28;;;4.85;;
5022;SDS011;2530;47.990;7.866;2023-08-30T03:33:47;5.60;;;5.10;;
5022;SDS011;2530;47.990;7.866;2023-08-30T03:36:16;5.50;;;5.10;;
5022;SDS011;2530;47.990;7.866;2023-08-30T03:38:43;5.32;;;4.93;;
5022;SDS011;2530;47.990;7.866;2023-08-30T03:41:10;5.30;;;4.90;;
5022;SDS011;2530;47.990;7.866;2023-08-30T03:43:36;5.78;;;5.28;;
5022;SDS011;2530;47.990;7.866;2023-08-30T03:46:02;6.00;;;5.40;;
5022;SDS011;2530;47.990;7.866;2023-08-30T03:48:30;5.83;;;5.30;;
5022;SDS011;2530;47.990;7.866;2023-08-30T03:50:56;5.70;;;5.20;;
5022;SDS011;2530;47.990;7.866;2023-08-30T03:53:22;5.95;;;5.35;;
5022;SDS011;2530;47.990;7.866;2023-08-30T03:55:48;6.05;;;5.50;;
5022;SDS011;2530;47.990;7.866;2023-08-30T03:58:15;5.70;;;5.20;;
5022;SDS011;2530;47.990;7.866;2023-08-30T04:00:41;5.63;;;5.22;;
5022;SDS011;2530;47.990;7.866;2023-08-30T04:03:07;5.80;;;5.20;;
5022;SDS011;2530;47.990;7.866;2023-08-30T04:05:36;6.00;;;5.50;;
5022;SDS011;2530;47.990;7.866;2023-08-30T04:08:02;6.40;;;5.80;;
5022;SDS011;2530;47.990;7.866;2023-08-30T04:10:29;6.53;;;5.13;;
5022;SDS011;2530;47.990;7.866;2023-08-30T04:12:58;5.40;;;4.90;;
5022;SDS011;2530;47.990;7.866;2023-08-30T04:15:24;6.85;;;5.40;;
5022;SDS011;2530;47.990;7.866;2023-08-30T04:17:50;5.47;;;5.07;;
5022;SDS011;2530;47.990;7.866;2023-08-30T04:20:15;5.50;;;5.07;;
5022;SDS011;2530;47.990;7.866;2023-08-30T04:22:41;8.20;;;5.40;;
5022;SDS011;2530;47.990;7.866;2023-08-30T04:25:06;5.10;;;4.70;;
5022;SDS011;2530;47.990;7.866;2023-08-30T04:27:34;5.90;;;5.40;;
5022;SDS011;2530;47.990;7.866;2023-08-30T04:29:59;5.37;;;4.97;;
5022;SDS011;2530;47.990;7.866;2023-08-30T04:32:25;6.10;;;5.50;;
5022;SDS011;2530;47.990;7.866;2023-08-30T04:34:50;5.25;;;4.82;;
5022;SDS011;2530;47.990;7.866;2023-08-30T04:37:16;5.03;;;4.53;;
5022;SDS011;2530;47.990;7.866;2023-08-30T04:39:41;5.10;;;4.70;;
5022;SDS011;2530;47.990;7.866;2023-08-30T04:42:07;5.30;;;4.80;;
5022;SDS011;2530;47.990;7.866;2023-08-30T04:44:33;5.90;;;5.30;;
5022;SDS011;2530;47.990;7.866;2023-08-30T04:46:58;5.53;;;5.13;;
5022;SDS011;2530;47.990;7.866;2023-08-30T04:49:24;5.23;;;4.83;;
5022;SDS011;2530;47.990;7.866;2023-08-30T04:51:50;5.80;;;5.20;;
5022;SDS011;2530;47.990;7.866;2023-08-30T04:54:16;5.70;;;5.20;;
5022;SDS011;2530;47.990;7.866;2023-08-30T04:56:41;5.33;;;4.93;;
5022;SDS011;2530;47.990;7.866;2023-08-30T04:59:07;5.90;;;5.40;;
5022;SDS011;2530;47.990;7.866;2023-08-30T05:01:32;7.10;;;6.40;;
5022;SDS011;2530;47.990;7.866;2023-08-30T05:03:58;7.00;;;6.25;;
5022;SDS011;2530;47.990;7.866;2023-08-30T05:06:24;7.00;;;5.90;;
5022;SDS011;2530;47.990;7.866;2023-08-30T05:08:49;5.27;;;4.87;;
5022;SDS011;2530;47.990;7.866;2023-08-30T05:11:15;6.07;;;5.47;;
5022;SDS011;2530;47.990;7.866;2023-08-30T05:13:41;5.60;;;5.03;;
5022;SDS011;2530;47.990;7.866;2023-08-30T05:16:06;5.27;;;4.77;;
5022;SDS011;2530;47.990;7.866;2023-08-30T05:18:32;5.10;;;4.70;;
5022;SDS011;2530;47.990;7.866;2023-08-30T05:20:57;5.50;;;5.00;;
5022;SDS011;2530;47.990;7.866;2023-08-30T05:23:23;5.20;;;4.80;;
5022;SDS011;2530;47.990;7.866;2023-08-30T05:25:48;5.43;;;4.93;;
5022;SDS011;2530;47.990;7.866;2023-08-30T05:28:14;4.88;;;4.47;;
5022;SDS011;2530;47.990;7.866;2023-08-30T05:30:41;5.33;;;4.83;;
5022;SDS011;2530;47.990;7.866;2023-08-30T05:33:08;5.70;;;5.10;;
5022;SDS011;2530;47.990;7.866;2023-08-30T05:35:34;4.47;;;4.03;;
5022;SDS011;2530;47.990;7.866;2023-08-30T05:37:59;4.90;;;4.50;;
5022;SDS011;2530;47.990;7.866;2023-08-30T05:40:25;4.97;;;4.57;;
5022;SDS011;2530;47.990;7.866;2023-08-30T05:42:51;5.63;;;5.13;;
5022;SDS011;2530;47.990;7.866;2023-08-30T05:45:16;4.90;;;4.30;;
5022;SDS011;2530;47.990;7.866;2023-08-30T05:47:42;5.30;;;4.47;;
5022;SDS011;2530;47.990;7.866;2023-08-30T05:50:08;4.97;;;4.57;;
5022;SDS011;2530;47.990;7.866;2023-08-30T05:52:33;5.38;;;4.97;;
5022;SDS011;2530;47.990;7.866;2023-08-30T05:54:59;5.35;;;4.95;;
5022;SDS011;2530;47.990;7.866;2023-08-30T05:57:24;5.10;;;4.70;;
5022;SDS011;2530;47.990;7.866;2023-08-30T05:59:51;4.90;;;4.50;;
5022;SDS011;2530;47.990;7.866;2023-08-30T06:02:17;5.80;;;4.67;;
5022;SDS011;2530;47.990;7.866;2023-08-30T06:04:42;4.90;;;4.50;;
5022;SDS011;2530;47.990;7.866;2023-08-30T06:07:08;5.05;;;4.57;;
5022;SDS011;2530;47.990;7.866;2023-08-30T06:09:33;4.87;;;4.53;;
5022;SDS011;2530;47.990;7.866;2023-08-30T06:11:59;4.10;;;3.80;;
5022;SDS011;2530;47.990;7.866;2023-08-30T06:14:26;4.60;;;4.20;;
5022;SDS011;2530;47.990;7.866;2023-08-30T06:16:51;4.82;;;4.43;;
5022;SDS011;2530;47.990;7.866;2023-08-30T06:19:17;4.50;;;4.00;;
5022;SDS011;2530;47.990;7.866;2023-08-30T06:21:42;4.37;;;3.97;;
5022;SDS011;2530;47.990;7.866;2023-08-30T06:24:08;4.40;;;4.00;;
5022;SDS011;2530;47.990;7.866;2023-08-30T06:26:34;4.20;;;3.77;;
5022;SDS011;2530;47.990;7.866;2023-08-30T06:28:59;4.25;;;3.85;;
5022;SDS011;2530;47.990;7.866;2023-08-30T06:31:25;4.50;;;4.10;;
5022;SDS011;2530;47.990;7.866;2023-08-30T06:33:51;3.95;;;3.63;;
5022;SDS011;2530;47.990;7.866;2023-08-30T06:36:16;4.10;;;3.80;;
5022;SDS011;2530;47.990;7.866;2023-08-30T06:38:43;4.55;;;4.15;;
5022;SDS011;2530;47.990;7.866;2023-08-30T06:41:09;4.30;;;3.92;;
5022;SDS011;2530;47.990;7.866;2023-08-30T06:43:34;5.20;;;3.90;;
5022;SDS011;2530;47.990;7.866;2023-08-30T06:46:00;4.07;;;3.67;;
5022;SDS011;2530;47.990;7.866;2023-08-30T06:48:25;5.93;;;3.90;;
5022;SDS011;2530;47.990;7.866;2023-08-30T06:50:51;4.32;;;4.03;;
5022;SDS011;2530;47.990;7.866;2023-08-30T06:53:16;4.67;;;4.27;;
5022;SDS011;2530;47.990;7.866;2023-08-30T06:55:42;4.50;;;4.20;;
5022;SDS011;2530;47.990;7.866;2023-08-30T06:58:07;4.50;;;4.10;;
5022;SDS011;2530;47.990;7.866;2023-08-30T07:00:33;4.10;;;3.80;;
5022;SDS011;2530;47.990;7.866;2023-08-30T07:02:59;6.40;;;4.47;;
5022;SDS011;2530;47.990;7.866;2023-08-30T07:05:24;4.90;;;4.50;;
5022;SDS011;2530;47.990;7.866;2023-08-30T07:07:50;4.68;;;4.28;;
5022;SDS011;2530;47.990;7.866;2023-08-30T07:10:15;6.00;;;4.50;;
5022;SDS011;2530;47.990;7.866;2023-08-30T07:12:41;4.60;;;4.20;;
5022;SDS011;2530;47.990;7.866;2023-08-30T07:15:07;4.10;;;3.80;;
5022;SDS011;2530;47.990;7.866;2023-08-30T07:17:33;4.00;;;3.70;;
5022;SDS011;2530;47.990;7.866;2023-08-30T07:19:58;9.80;;;3.63;;
5022;SDS011;2530;47.990;7.866;2023-08-30T07:22:24;5.45;;;3.90;;
5022;SDS011;2530;47.990;7.866;2023-08-30T07:24:50;3.83;;;3.53;;
5022;SDS011;2530;47.990;7.866;2023-08-30T07:27:16;4.30;;;3.90;;
5022;SDS011;2530;47.990;7.866;2023-08-30T07:29:41;4.55;;;3.45;;
5022;SDS011;2530;47.990;7.866;2023-08-30T07:32:08;3.45;;;3.15;;
5022;SDS011;2530;47.990;7.866;2023-08-30T07:34:34;3.63;;;3.40;;
5022;SDS011;2530;47.990;7.866;2023-08-30T07:37:00;4.00;;;3.20;;
5022;SDS011;2530;47.990;7.866;2023-08-30T07:39:26;3.60;;;3.30;;
5022;SDS011;2530;47.990;7.866;2023-08-30T07:41:51;3.50;;;3.20;;
5022;SDS011;2530;47.990;7.866;2023-08-30T07:44:17;3.40;;;3.10;;
5022;SDS011;2530;47.990;7.866;2023-08-30T07:46:44;3.83;;;3.42;;
5022;SDS011;2530;47.990;7.866;2023-08-30T07:49:10;2.80;;;2.60;;
5022;SDS011;2530;47.990;7.866;2023-08-30T07:51:35;3.10;;;2.80;;
5022;SDS011;2530;47.990;7.866;2023-08-30T07:54:01;2.40;;;2.30;;
5022;SDS011;2530;47.990;7.866;2023-08-30T07:56:26;2.70;;;2.50;;
5022;SDS011;2530;47.990;7.866;2023-08-30T07:58:54;3.10;;;2.90;;
5022;SDS011;2530;47.990;7.866;2023-08-30T08:01:19;3.40;;;3.10;;
5022;SDS011;2530;47.990;7.866;2023-08-30T08:03:45;3.00;;;2.60;;
5022;SDS011;2530;47.990;7.866;2023-08-30T08:06:10;3.10;;;2.87;;
5022;SDS011;2530;47.990;7.866;2023-08-30T08:08:36;2.70;;;2.50;;
5022;SDS011;2530;47.990;7.866;2023-08-30T08:11:01;2.90;;;2.70;;
5022;SDS011;2530;47.990;7.866;2023-08-30T08:13:28;3.00;;;2.80;;
5022;SDS011;2530;47.990;7.866;2023-08-30T08:15:55;2.92;;;2.67;;
5022;SDS011;2530;47.990;7.866;2023-08-30T08:18:22;2.80;;;2.60;;
5022;SDS011;2530;47.990;7.866;2023-08-30T08:20:47;3.10;;;2.60;;
5022;SDS011;2530;47.990;7.866;2023-08-30T08:23:13;2.78;;;2.47;;
5022;SDS011;2530;47.990;7.866;2023-08-30T08:25:38;2.60;;;2.40;;
5022;SDS011;2530;47.990;7.866;2023-08-30T08:28:04;2.50;;;2.40;;
5022;SDS011;2530;47.990;7.866;2023-08-30T08:30:29;2.78;;;2.45;;
5022;SDS011;2530;47.990;7.866;2023-08-30T08:32:55;2.50;;;2.30;;
5022;SDS011;2530;47.990;7.866;2023-08-30T08:35:21;2.80;;;2.60;;
5022;SDS011;2530;47.990;7.866;2023-08-30T08:37:46;3.60;;;2.72;;
5022;SDS011;2530;47.990;7.866;2023-08-30T08:40:12;2.50;;;2.30;;
5022;SDS011;2530;47.990;7.866;2023-08-30T08:42:37;3.20;;;2.77;;
5022;SDS011;2530;47.990;7.866;2023-08-30T08:45:03;3.20;;;2.90;;
5022;SDS011;2530;47.990;7.866;2023-08-30T08:47:30;2.75;;;2.55;;
5022;SDS011;2530;47.990;7.866;2023-08-30T08:49:56;3.15;;;2.67;;
5022;SDS011;2530;47.990;7.866;2023-08-30T08:52:25;2.80;;;2.60;;
5022;SDS011;2530;47.990;7.866;2023-08-30T08:54:51;2.78;;;2.58;;
5022;SDS011;2530;47.990;7.866;2023-08-30T08:57:17;2.60;;;2.50;;
5022;SDS011;2530;47.990;7.866;2023-08-30T08:59:44;2.80;;;2.60;;
5022;SDS011;2530;47.990;7.866;2023-08-30T09:02:10;3.38;;;3.08;;
5022;SDS011;2530;47.990;7.866;2023-08-30T09:04:38;3.10;;;2.80;;
5022;SDS011;2530;47.990;7.866;2023-08-30T09:07:04;3.80;;;2.50;;
5022;SDS011;2530;47.990;7.866;2023-08-30T09:09:30;2.88;;;2.63;;
5022;SDS011;2530;47.990;7.866;2023-08-30T09:11:56;2.80;;;2.60;;
5022;SDS011;2530;47.990;7.866;2023-08-30T09:14:22;3.03;;;2.83;;
5022;SDS011;2530;47.990;7.866;2023-08-30T09:16:57;3.00;;;2.80;;
5022;SDS011;2530;47.990;7.866;2023-08-30T09:19:28;3.40;;;3.10;;
5022;SDS011;2530;47.990;7.866;2023-08-30T09:21:55;3.60;;;3.30;;
5022;SDS011;2530;47.990;7.866;2023-08-30T09:24:24;3.60;;;3.30;;
5022;SDS011;2530;47.990;7.866;2023-08-30T09:26:51;3.80;;;3.40;;
5022;SDS011;2530;47.990;7.866;2023-08-30T09:29:20;4.13;;;3.80;;
5022;SDS011;2530;47.990;7.866;2023-08-30T09:31:50;4.15;;;3.85;;
5022;SDS011;2530;47.990;7.866;2023-08-30T09:34:21;4.60;;;4.30;;
5022;SDS011;2530;47.990;7.866;2023-08-30T09:36:48;4.80;;;4.40;;
5022;SDS011;2530;47.990;7.866;2023-08-30T09:39:15;5.00;;;4.60;;
5022;SDS011;2530;47.990;7.866;2023-08-30T09:41:44;4.55;;;4.20;;
5022;SDS011;2530;47.990;7.866;2023-08-30T09:44:15;4.20;;;3.90;;
5022;SDS011;2530;47.990;7.866;2023-08-30T09:46:52;5.00;;;4.50;;
5022;SDS011;2530;47.990;7.866;2023-08-30T09:49:20;4.97;;;4.40;;
5022;SDS011;2530;47.990;7.866;2023-08-30T09:51:50;4.40;;;4.10;;
5022;SDS011;2530;47.990;7.866;2023-08-30T09:54:20;3.67;;;3.40;;
5022;SDS011;2530;47.990;7.866;2023-08-30T09:56:48;4.40;;;4.00;;
5022;SDS011;2530;47.990;7.866;2023-08-30T09:59:17;4.25;;;3.75;;
5022;SDS011;2530;47.990;7.866;2023-08-30T10:01:45;3.40;;;3.20;;
5022;SDS011;2530;47.990;7.866;2023-08-30T10:04:13;3.80;;;3.50;;
5022;SDS011;2530;47.990;7.866;2023-08-30T10:06:39;3.90;;;3.60;;
5022;SDS011;2530;47.990;7.866;2023-08-30T10:09:06;3.87;;;3.57;;
5022;SDS011;2530;47.990;7.866;2023-08-30T10:11:36;3.80;;;3.50;;
5022;SDS011;2530;47.990;7.866;2023-08-30T10:14:03;4.20;;;3.80;;
5022;SDS011;2530;47.990;7.866;2023-08-30T10:16:37;3.30;;;3.10;;
5022;SDS011;2530;47.990;7.866;2023-08-30T10:19:22;4.10;;;3.22;;
5022;SDS011;2530;47.990;7.866;2023-08-30T10:21:52;3.30;;;3.10;;
5022;SDS011;2530;47.990;7.866;2023-08-30T10:24:21;3.40;;;3.00;;
5022;SDS011;2530;47.990;7.866;2023-08-30T10:26:49;3.40;;;3.10;;
5022;SDS011;2530;47.990;7.866;2023-08-30T10:29:15;3.50;;;3.20;;
5022;SDS011;2530;47.990;7.866;2023-08-30T10:31:42;3.30;;;3.00;;
5022;SDS011;2530;47.990;7.866;2023-08-30T10:34:15;3.30;;;3.10;;
5022;SDS011;2530;47.990;7.866;2023-08-30T10:36:42;3.17;;;2.90;;
5022;SDS011;2530;47.990;7.866;2023-08-30T10:39:12;3.40;;;3.10;;
5022;SDS011;2530;47.990;7.866;2023-08-30T10:41:53;3.08;;;2.83;;
5022;SDS011;2530;47.990;7.866;2023-08-30T10:44:21;3.28;;;2.97;;
5022;SDS011;2530;47.990;7.866;2023-08-30T10:46:51;3.65;;;3.30;;
5022;SDS011;2530;47.990;7.866;2023-08-30T10:49:19;3.00;;;2.80;;
5022;SDS011;2530;47.990;7.866;2023-08-30T10:51:53;3.13;;;2.93;;
5022;SDS011;2530;47.990;7.866;2023-08-30T10:54:19;3.20;;;3.00;;
5022;SDS011;2530;47.990;7.866;2023-08-30T10:56:47;3.40;;;2.90;;
5022;SDS011;2530;47.990;7.866;2023-08-30T10:59:19;3.58;;;3.00;;
5022;SDS011;2530;47.990;7.866;2023-08-30T11:01:46;2.60;;;2.40;;
5022;SDS011;2530;47.990;7.866;2023-08-30T11:04:14;3.90;;;2.63;;
5022;SDS011;2530;47.990;7.866;2023-08-30T11:06:42;2.97;;;2.78;;
5022;SDS011;2530;47.990;7.866;2023-08-30T11:09:09;2.85;;;2.65;;
5022;SDS011;2530;47.990;7.866;2023-08-30T11:11:37;2.80;;;2.50;;
5022;SDS011;2530;47.990;7.866;2023-08-30T11:14:03;3.00;;;2.70;;
5022;SDS011;2530;47.990;7.866;2023-08-30T11:16:31;3.25;;;2.95;;
5022;SDS011;2530;47.990;7.866;2023-08-30T11:18:57;2.80;;;2.60;;
5022;SDS011;2530;47.990;7.866;2023-08-30T11:21:23;2.60;;;2.40;;
5022;SDS011;2530;47.990;7.866;2023-08-30T11:23:48;2.77;;;2.30;;
5022;SDS011;2530;47.990;7.866;2023-08-30T11:26:15;3.33;;;2.72;;
5022;SDS011;2530;47.990;7.866;2023-08-30T11:28:42;3.15;;;2.78;;
5022;SDS011;2530;47.990;7.866;2023-08-30T11:31:17;2.88;;;2.60;;
5022;SDS011;2530;47.990;7.866;2023-08-30T11:33:56;3.72;;;2.80;;
5022;SDS011;2530;47.990;7.866;2023-08-30T11:36:23;3.20;;;2.90;;
5022;SDS011;2530;47.990;7.866;2023-08-30T11:38:52;3.07;;;2.87;;
5022;SDS011;2530;47.990;7.866;2023-08-30T11:41:22;2.80;;;2.60;;
5022;SDS011;2530;47.990;7.866;2023-08-30T11:43:48;2.80;;;2.60;;
5022;SDS011;2530;47.990;7.866;2023-08-30T11:46:14;2.80;;;2.60;;
5022;SDS011;2530;47.990;7.866;2023-08-30T11:48:41;3.55;;;3.25;;
5022;SDS011;2530;47.990;7.866;2023-08-30T11:51:07;3.25;;;2.95;;
5022;SDS011;2530;47.990;7.866;2023-08-30T11:53:34;3.33;;;3.03;;
5022;SDS011;2530;47.990;7.866;2023-08-30T11:56:00;3.80;;;3.40;;
5022;SDS011;2530;47.990;7.866;2023-08-30T11:58:26;3.30;;;2.75;;
5022;SDS011;2530;47.990;7.866;2023-08-30T12:00:52;3.30;;;3.10;;
5022;SDS011;2530;47.990;7.866;2023-08-30T12:03:22;3.50;;;2.80;;
5022;SDS011;2530;47.990;7.866;2023-08-30T12:05:48;3.10;;;2.70;;
5022;SDS011;2530;47.990;7.866;2023-08-30T12:08:18;2.70;;;2.50;;
5022;SDS011;2530;47.990;7.866;2023-08-30T12:10:54;2.97;;;2.50;;
5022;SDS011;2530;47.990;7.866;2023-08-30T12:13:31;2.50;;;2.30;;
5022;SDS011;2530;47.990;7.866;2023-08-30T12:15:58;3.60;;;2.35;;
5022;SDS011;2530;47.990;7.866;2023-08-30T12:18:25;3.25;;;2.58;;
5022;SDS011;2530;47.990;7.866;2023-08-30T12:23:29;2.70;;;2.43;;
5022;SDS011;2530;47.990;7.866;2023-08-30T12:26:05;2.90;;;2.60;;
5022;SDS011;2530;47.990;7.866;2023-08-30T12:28:36;2.85;;;1.92;;
5022;SDS011;2530;47.990;7.866;2023-08-30T12:31:05;2.13;;;1.90;;
5022;SDS011;2530;47.990;7.866;2023-08-30T12:33:32;1.95;;;1.85;;
5022;SDS011;2530;47.990;7.866;2023-08-30T12:35:59;3.08;;;2.20;;
5022;SDS011;2530;47.990;7.866;2023-08-30T12:38:25;2.08;;;1.80;;
5022;SDS011;2530;47.990;7.866;2023-08-30T12:40:51;2.10;;;2.00;;
5022;SDS011;2530;47.990;7.866;2023-08-30T12:43:18;2.00;;;1.90;;
5022;SDS011;2530;47.990;7.866;2023-08-30T12:45:48;2.20;;;2.00;;
5022;SDS011;2530;47.990;7.866;2023-08-30T12:48:14;2.40;;;2.20;;
5022;SDS011;2530;47.990;7.866;2023-08-30T12:50:42;1.80;;;1.70;;
5022;SDS011;2530;47.990;7.866;2023-08-30T12:53:09;2.00;;;1.90;;
5022;SDS011;2530;47.990;7.866;2023-08-30T12:55:35;2.95;;;2.10;;
5022;SDS011;2530;47.990;7.866;2023-08-30T12:58:01;2.70;;;2.00;;
5022;SDS011;2530;47.990;7.866;2023-08-30T13:00:30;2.30;;;1.83;;
5022;SDS011;2530;47.990;7.866;2023-08-30T13:02:55;1.90;;;1.80;;
5022;SDS011;2530;47.990;7.866;2023-08-30T13:05:21;2.10;;;2.00;;
5022;SDS011;2530;47.990;7.866;2023-08-30T13:07:47;2.70;;;2.20;;
5022;SDS011;2530;47.990;7.866;2023-08-30T13:10:13;4.18;;;2.38;;
5022;SDS011;2530;47.990;7.866;2023-08-30T13:12:39;2.30;;;2.10;;
5022;SDS011;2530;47.990;7.866;2023-08-30T13:15:05;2.20;;;2.00;;
5022;SDS011;2530;47.990;7.866;2023-08-30T13:17:31;2.50;;;2.30;;
5022;SDS011;2530;47.990;7.866;2023-08-30T13:19:56;2.60;;;2.40;;
5022;SDS011;2530;47.990;7.866;2023-08-30T13:22:23;2.00;;;1.90;;
5022;SDS011;2530;47.990;7.866;2023-08-30T13:24:51;2.30;;;2.10;;
5022;SDS011;2530;47.990;7.866;2023-08-30T13:27:17;2.60;;;2.40;;
5022;SDS011;2530;47.990;7.866;2023-08-30T13:29:43;2.20;;;2.10;;
5022;SDS011;2530;47.990;7.866;2023-08-30T13:32:08;3.80;;;2.40;;
5022;SDS011;2530;47.990;7.866;2023-08-30T13:34:34;3.70;;;2.30;;
5022;SDS011;2530;47.990;7.866;2023-08-30T13:37:00;2.90;;;2.37;;
5022;SDS011;2530;47.990;7.866;2023-08-30T13:39:25;2.05;;;1.90;;
5022;SDS011;2530;47.990;7.866;2023-08-30T13:41:51;2.07;;;1.97;;
5022;SDS011;2530;47.990;7.866;2023-08-30T13:44:16;2.42;;;2.00;;
5022;SDS011;2530;47.990;7.866;2023-08-30T13:46:43;1.90;;;1.80;;
5022;SDS011;2530;47.990;7.866;2023-08-30T13:49:09;2.00;;;1.90;;
5022;SDS011;2530;47.990;7.866;2023-08-30T13:51:35;2.28;;;1.90;;
5022;SDS011;2530;47.990;7.866;2023-08-30T13:54:01;2.00;;;1.80;;
5022;SDS011;2530;47.990;7.866;2023-08-30T13:56:27;2.40;;;2.20;;
5022;SDS011;2530;47.990;7.866;2023-08-30T13:58:52;2.97;;;2.17;;
5022;SDS011;2530;47.990;7.866;2023-08-30T14:01:18;2.30;;;2.10;;
5022;SDS011;2530;47.990;7.866;2023-08-30T14:03:43;1.80;;;1.70;;
5022;SDS011;2530;47.990;7.866;2023-08-30T14:06:09;2.40;;;2.20;;
5022;SDS011;2530;47.990;7.866;2023-08-30T14:08:35;1.92;;;1.80;;
5022;SDS011;2530;47.990;7.866;2023-08-30T14:11:00;2.40;;;1.90;;
5022;SDS011;2530;47.990;7.866;2023-08-30T14:13:26;1.90;;;1.80;;
5022;SDS011;2530;47.990;7.866;2023-08-30T14:15:53;1.90;;;1.70;;
5022;SDS011;2530;47.990;7.866;2023-08-30T14:18:19;1.88;;;1.77;;
5022;SDS011;2530;47.990;7.866;2023-08-30T14:20:44;2.10;;;1.80;;
5022;SDS011;2530;47.990;7.866;2023-08-30T14:23:10;2.70;;;1.83;;
5022;SDS011;2530;47.990;7.866;2023-08-30T14:25:36;1.92;;;1.70;;
5022;SDS011;2530;47.990;7.866;2023-08-30T14:28:01;2.40;;;2.00;;
5022;SDS011;2530;47.990;7.866;2023-08-30T14:30:28;3.65;;;2.10;;
5022;SDS011;2530;47.990;7.866;2023-08-30T14:32:54;2.75;;;1.77;;
5022;SDS011;2530;47.990;7.866;2023-08-30T14:35:20;2.00;;;1.70;;
5022;SDS011;2530;47.990;7.866;2023-08-30T14:37:46;1.70;;;1.60;;
5022;SDS011;2530;47.990;7.866;2023-08-30T14:40:15;2.28;;;2.08;;
5022;SDS011;2530;47.990;7.866;2023-08-30T14:42:41;2.63;;;1.98;;
5022;SDS011;2530;47.990;7.866;2023-08-30T14:45:07;2.00;;;1.70;;
5022;SDS011;2530;47.990;7.866;2023-08-30T14:47:33;2.08;;;1.88;;
5022;SDS011;2530;47.990;7.866;2023-08-30T14:49:59;3.20;;;1.98;;
5022;SDS011;2530;47.990;7.866;2023-08-30T14:52:27;1.90;;;1.80;;
5022;SDS011;2530;47.990;7.866;2023-08-30T14:54:53;2.03;;;1.83;;
5022;SDS011;2530;47.990;7.866;2023-08-30T14:57:18;2.08;;;1.80;;
5022;SDS011;2530;47.990;7.866;2023-08-30T14:59:44;1.90;;;1.80;;
5022;SDS011;2530;47.990;7.866;2023-08-30T15:02:09;1.90;;;1.80;;
5022;SDS011;2530;47.990;7.866;2023-08-30T15:04:35;2.50;;;2.00;;
5022;SDS011;2530;47.990;7.866;2023-08-30T15:07:00;4.17;;;2.17;;
5022;SDS011;2530;47.990;7.866;2023-08-30T15:09:26;2.10;;;1.90;;
5022;SDS011;2530;47.990;7.866;2023-08-30T15:11:54;1.92;;;1.80;;
5022;SDS011;2530;47.990;7.866;2023-08-30T15:14:20;2.28;;;1.75;;
5022;SDS011;2530;47.990;7.866;2023-08-30T15:16:45;1.90;;;1.70;;
5022;SDS011;2530;47.990;7.866;2023-08-30T15:19:11;2.38;;;1.85;;
5022;SDS011;2530;47.990;7.866;2023-08-30T15:21:38;1.65;;;1.35;;